createdAt,value
2022-09-05T00:01:55.841Z,15.30
2022-09-05T00:04:47.594Z,15.30
2022-09-05T00:07:36.032Z,15.40
2022-09-05T00:10:37.344Z,15.30
2022-09-05T00:13:22.792Z,15.30
2022-09-05T00:16:21.583Z,15.30
2022-09-05T00:23:17.639Z,15.30
2022-09-05T00:24:35.462Z,15.40
2022-09-05T00:26:03.325Z,15.50
2022-09-05T00:28:44.030Z,15.30
2022-09-05T00:31:54.304Z,15.40
2022-09-05T00:34:47.806Z,15.40
2022-09-05T00:37:34.888Z,15.30
2022-09-05T00:40:17.924Z,15.20
2022-09-05T00:42:53.969Z,15.50
2022-09-05T00:45:48.271Z,15.40
2022-09-05T00:48:51.464Z,15.20
2022-09-05T00:51:46.971Z,15.20
2022-09-05T00:54:51.749Z,15.20
2022-09-05T00:57:18.494Z,15.30
2022-09-05T01:00:06.107Z,15.20
2022-09-05T01:03:10.125Z,15.20
2022-09-05T01:06:15.306Z,15.10
2022-09-05T01:09:32.648Z,15.10
2022-09-05T01:12:13.885Z,15.00
2022-09-05T01:15:22.420Z,14.90
2022-09-05T01:18:00.579Z,14.90
2022-09-05T01:20:49.654Z,14.90
2022-09-05T01:23:28.607Z,14.90
2022-09-05T01:26:20.770Z,14.90
2022-09-05T01:29:16.373Z,14.80
2022-09-05T01:32:04.587Z,14.80
2022-09-05T01:34:54.455Z,14.80
2022-09-05T01:38:06.753Z,14.90
2022-09-05T01:40:43.578Z,14.90
2022-09-05T01:43:27.984Z,14.80
2022-09-05T01:46:09.005Z,14.80
2022-09-05T01:48:53.612Z,14.80
2022-09-05T01:51:28.978Z,14.70
2022-09-05T01:54:25.730Z,14.70
2022-09-05T01:57:13.588Z,14.50
2022-09-05T01:59:58.182Z,14.50
2022-09-05T02:02:50.216Z,14.50
2022-09-05T02:05:48.315Z,14.50
2022-09-05T02:08:15.973Z,14.40
2022-09-05T02:10:47.548Z,14.40
2022-09-05T02:13:17.323Z,14.30
2022-09-05T02:15:59.806Z,14.30
2022-09-05T02:18:54.251Z,14.30
2022-09-05T02:21:33.449Z,14.30
2022-09-05T02:24:28.039Z,14.30
2022-09-05T02:27:03.966Z,14.30
2022-09-05T02:29:55.760Z,14.30
2022-09-05T02:32:45.932Z,14.20
2022-09-05T02:35:30.247Z,14.20
2022-09-05T02:40:26.255Z,14.20
2022-09-05T02:45:09.514Z,14.20
2022-09-05T02:45:17.492Z,14.20
2022-09-05T02:47:01.173Z,14.20
2022-09-05T02:52:03.847Z,14.10
2022-09-05T02:57:25.344Z,14.20
2022-09-05T02:57:36.374Z,14.10
2022-09-05T02:58:24.141Z,14.10
2022-09-05T03:01:21.098Z,14.10
2022-09-05T03:04:18.212Z,14.10
2022-09-05T03:07:01.320Z,14.10
2022-09-05T03:10:05.335Z,14.10
2022-09-05T03:13:02.616Z,14.00
2022-09-05T03:15:44.267Z,14.00
2022-09-05T03:18:26.089Z,14.10
2022-09-05T03:21:24.821Z,14.00
2022-09-05T03:24:22.948Z,14.00
2022-09-05T03:27:29.370Z,14.00
2022-09-05T03:30:06.301Z,14.00
2022-09-05T03:33:05.831Z,13.90
2022-09-05T03:35:54.363Z,13.90
2022-09-05T03:39:04.469Z,13.90
2022-09-05T03:42:14.669Z,13.90
2022-09-05T03:45:36.376Z,13.80
2022-09-05T03:48:27.922Z,13.80
2022-09-05T03:56:01.316Z,13.70
2022-09-05T03:57:23.882Z,13.70
2022-09-05T03:57:32.236Z,13.70
2022-09-05T04:00:08.627Z,13.70
2022-09-05T04:08:13.499Z,13.70
2022-09-05T04:08:18.450Z,13.70
2022-09-05T04:08:46.158Z,13.60
2022-09-05T04:11:32.146Z,13.60
2022-09-05T04:14:21.046Z,13.60
2022-09-05T04:16:56.256Z,13.50
2022-09-05T04:19:41.510Z,13.60
2022-09-05T04:22:32.108Z,13.50
2022-09-05T04:25:42.861Z,13.50
2022-09-05T04:28:31.613Z,13.50
2022-09-05T04:31:03.009Z,13.50
2022-09-05T04:33:43.229Z,13.50
2022-09-05T04:36:20.988Z,13.50
2022-09-05T04:39:07.037Z,13.60
2022-09-05T04:41:40.210Z,13.60
2022-09-05T04:44:42.907Z,13.50
2022-09-05T04:47:27.568Z,13.70
2022-09-05T04:50:06.783Z,13.70
2022-09-05T04:52:52.224Z,13.70
2022-09-05T04:55:51.874Z,13.70
2022-09-05T04:59:22.318Z,13.80
2022-09-05T05:06:04.051Z,13.80
2022-09-05T05:06:10.664Z,13.80
2022-09-05T05:07:51.801Z,13.90
2022-09-05T05:14:44.459Z,14.00
2022-09-05T05:18:08.473Z,14.10
2022-09-05T05:18:12.507Z,14.00
2022-09-05T05:20:42.644Z,14.10
2022-09-05T05:23:14.551Z,14.20
2022-09-05T05:25:49.748Z,14.40
2022-09-05T05:28:37.748Z,14.40
2022-09-05T05:31:16.875Z,14.50
2022-09-05T05:33:49.208Z,14.60
2022-09-05T05:36:39.488Z,14.60
2022-09-05T05:39:24.755Z,14.60
2022-09-05T05:42:05.316Z,14.60
2022-09-05T05:44:53.908Z,14.60
2022-09-05T05:47:35.023Z,14.50
2022-09-05T05:50:35.187Z,14.50
2022-09-05T05:53:43.606Z,14.50
2022-09-05T05:56:32.698Z,14.50
2022-09-05T05:59:14.059Z,14.60
2022-09-05T06:02:02.589Z,14.60
2022-09-05T06:04:44.738Z,14.70
2022-09-05T06:08:30.530Z,14.70
2022-09-05T06:14:49.361Z,14.80
2022-09-05T06:14:57.126Z,14.90
2022-09-05T06:17:09.523Z,14.90
2022-09-05T06:22:04.547Z,15.00
2022-09-05T06:23:39.590Z,15.00
2022-09-05T06:26:45.715Z,15.10
2022-09-05T06:29:25.327Z,15.10
2022-09-05T06:32:33.565Z,15.30
2022-09-05T06:35:24.651Z,15.30
2022-09-05T06:38:07.573Z,15.50
2022-09-05T06:40:37.977Z,15.50
2022-09-05T06:43:40.241Z,15.70
2022-09-05T06:46:55.479Z,15.80
2022-09-05T06:49:30.885Z,15.90
2022-09-05T06:52:40.898Z,16.10
2022-09-05T06:55:38.412Z,16.20
2022-09-05T06:58:32.600Z,16.30
2022-09-05T07:01:01.257Z,16.40
2022-09-05T07:03:52.231Z,16.50
2022-09-05T07:07:01.905Z,16.60
2022-09-05T07:09:52.088Z,16.70
2022-09-05T07:12:45.058Z,16.80
2022-09-05T07:15:12.147Z,16.80
2022-09-05T07:18:13.477Z,16.90
2022-09-05T07:21:17.370Z,17.10
2022-09-05T07:24:09.143Z,17.20
2022-09-05T07:26:53.973Z,17.30
2022-09-05T07:29:37.592Z,17.50
2022-09-05T07:32:08.692Z,17.60
2022-09-05T07:34:37.694Z,17.60
2022-09-05T07:37:15.133Z,17.80
2022-09-05T07:39:58.340Z,17.80
2022-09-05T07:42:49.954Z,18.00
2022-09-05T07:45:55.560Z,18.00
2022-09-05T07:48:34.790Z,18.00
2022-09-05T07:54:06.106Z,18.10
2022-09-05T07:56:52.882Z,18.10
2022-09-05T08:00:25.613Z,18.00
2022-09-05T08:02:55.338Z,18.10
2022-09-05T08:05:34.429Z,18.10
2022-09-05T08:08:05.500Z,18.30
2022-09-05T08:11:22.090Z,18.40
2022-09-05T08:13:42.568Z,18.30
2022-09-05T08:16:20.740Z,18.40
2022-09-05T08:19:09.876Z,18.40
2022-09-05T08:21:50.737Z,18.50
2022-09-05T08:24:29.122Z,18.40
2022-09-05T08:27:16.060Z,18.50
2022-09-05T08:30:24.856Z,18.60
2022-09-05T08:32:57.582Z,18.60
2022-09-05T08:36:01.157Z,18.60
2022-09-05T08:38:38.731Z,18.60
2022-09-05T08:41:23.641Z,18.50
2022-09-05T08:46:43.162Z,18.60
2022-09-05T08:47:12.489Z,18.60
2022-09-05T08:49:55.745Z,18.70
2022-09-05T08:52:52.663Z,18.70
2022-09-05T08:55:39.886Z,18.80
2022-09-05T08:58:33.922Z,18.80
2022-09-05T09:01:13.270Z,18.90
2022-09-05T09:03:52.498Z,18.90
2022-09-05T09:06:35.962Z,19.00
2022-09-05T09:09:21.342Z,19.00
2022-09-05T09:12:12.852Z,19.00
2022-09-05T09:14:45.956Z,19.20
2022-09-05T09:17:31.340Z,19.20
2022-09-05T09:20:06.927Z,19.30
2022-09-05T09:22:41.533Z,19.40
2022-09-05T09:25:15.073Z,19.50
2022-09-05T09:28:47.636Z,19.50
2022-09-05T09:31:26.628Z,19.50
2022-09-05T09:34:06.981Z,19.50
2022-09-05T09:37:09.725Z,19.60
2022-09-05T09:40:09.080Z,19.60
2022-09-05T09:42:50.913Z,19.60
2022-09-05T09:45:29.839Z,19.70
2022-09-05T09:48:16.473Z,19.70
2022-09-05T09:51:12.250Z,19.90
2022-09-05T09:54:05.493Z,20.00
2022-09-05T09:56:57.486Z,20.00
2022-09-05T09:59:24.289Z,20.10
2022-09-05T10:10:04.377Z,20.20
2022-09-05T10:10:37.878Z,20.30
2022-09-05T10:10:45.544Z,20.30
2022-09-05T10:14:45.088Z,20.50
2022-09-05T10:17:32.134Z,20.50
2022-09-05T10:20:15.216Z,20.60
2022-09-05T10:22:57.156Z,20.60
2022-09-05T10:25:45.723Z,20.60
2022-09-05T10:28:31.187Z,20.70
2022-09-05T10:33:11.862Z,20.80
2022-09-05T10:35:16.251Z,20.90
2022-09-05T10:37:13.141Z,21.00
2022-09-05T10:39:46.993Z,21.10
2022-09-05T10:42:58.127Z,21.10
2022-09-05T10:45:55.666Z,21.20
2022-09-05T10:48:38.783Z,21.30
2022-09-05T10:51:27.863Z,21.50
2022-09-05T10:54:32.170Z,21.50
2022-09-05T10:57:13.368Z,21.60
2022-09-05T11:02:21.956Z,21.60
2022-09-05T11:02:58.198Z,21.70
2022-09-05T11:05:36.401Z,21.90
2022-09-05T11:08:11.708Z,22.00
2022-09-05T11:11:11.268Z,22.10
2022-09-05T11:13:58.789Z,22.40
2022-09-05T11:16:44.681Z,22.70
2022-09-05T11:19:26.336Z,22.90
2022-09-05T11:22:06.496Z,23.10
2022-09-05T11:25:00.113Z,23.30
2022-09-05T11:27:40.108Z,23.40
2022-09-05T11:30:07.790Z,23.50
2022-09-05T11:39:46.222Z,23.60
2022-09-05T11:39:53.892Z,23.90
2022-09-05T11:40:25.000Z,23.80
2022-09-05T11:42:43.296Z,23.80
2022-09-05T11:46:00.917Z,23.90
2022-09-05T11:48:53.725Z,24.20
2022-09-05T11:51:44.895Z,24.40
2022-09-05T11:54:48.998Z,24.60
2022-09-05T11:57:42.955Z,24.80
2022-09-05T12:00:35.332Z,24.90
2022-09-05T12:04:01.098Z,25.00
2022-09-05T12:07:15.603Z,25.50
2022-09-05T12:10:02.573Z,25.70
2022-09-05T12:12:38.955Z,25.80
2022-09-05T12:15:27.527Z,25.90
2022-09-05T12:18:19.392Z,26.10
2022-09-05T12:21:01.118Z,26.10
2022-09-05T12:24:07.778Z,26.00
2022-09-05T12:27:42.930Z,25.90
2022-09-05T12:30:13.973Z,26.50
2022-09-05T12:36:06.336Z,26.80
2022-09-05T12:39:56.044Z,27.20
2022-09-05T12:40:55.129Z,28.50
2022-09-05T12:43:01.771Z,31.80
2022-09-05T12:45:50.411Z,35.80
2022-09-05T12:48:39.088Z,36.60
2022-09-05T12:51:18.065Z,39.20
2022-09-05T12:54:03.907Z,39.70
2022-09-05T13:00:41.120Z,37.50
2022-09-05T13:03:02.329Z,34.10
2022-09-05T13:03:28.383Z,34.90
2022-09-05T13:06:17.106Z,37.40
2022-09-05T13:08:59.679Z,40.30
2022-09-05T13:14:49.744Z,42.00
2022-09-05T13:14:59.082Z,46.00
2022-09-05T13:17:15.600Z,48.90
2022-09-05T13:19:51.439Z,49.20
2022-09-05T13:22:23.341Z,50.30
2022-09-05T13:25:16.630Z,50.60
2022-09-05T13:27:56.667Z,49.90
2022-09-05T13:35:30.052Z,50.00
2022-09-05T13:38:15.621Z,50.00
2022-09-05T13:38:30.739Z,50.50
2022-09-05T13:39:13.145Z,48.00
2022-09-05T13:41:59.676Z,48.20
2022-09-05T13:44:33.635Z,49.20
2022-09-05T13:47:29.546Z,49.70
2022-09-05T13:50:13.557Z,50.70
2022-09-05T13:52:53.041Z,50.80
2022-09-05T13:55:27.413Z,50.70
2022-09-05T13:57:56.567Z,51.20
2022-09-05T14:00:38.068Z,51.30
2022-09-05T14:06:45.728Z,51.10
2022-09-05T14:09:41.613Z,51.30
2022-09-05T14:12:29.507Z,50.90
2022-09-05T14:15:13.731Z,50.30
2022-09-05T14:18:19.993Z,50.60
2022-09-05T14:21:26.939Z,51.00
2022-09-05T14:23:56.625Z,51.30
2022-09-05T14:26:46.045Z,51.50
2022-09-05T14:29:55.244Z,49.10
2022-09-05T14:37:41.385Z,45.40
2022-09-05T14:37:42.125Z,42.90
2022-09-05T14:38:39.461Z,44.50
2022-09-05T14:41:28.285Z,43.40
2022-09-05T14:44:01.295Z,40.90
2022-09-05T14:46:39.818Z,37.30
2022-09-05T14:49:25.703Z,34.30
2022-09-05T14:51:58.481Z,32.60
2022-09-05T15:02:58.504Z,32.40
2022-09-05T15:02:58.669Z,31.90
2022-09-05T15:03:12.491Z,31.30
2022-09-05T15:05:50.082Z,30.20
2022-09-05T15:10:09.136Z,29.60
2022-09-05T15:12:16.217Z,29.50
2022-09-05T15:14:06.633Z,29.40
2022-09-05T15:16:43.585Z,29.40
2022-09-05T15:19:11.237Z,28.80
2022-09-05T15:21:42.815Z,28.10
2022-09-05T15:24:32.413Z,27.10
2022-09-05T15:27:01.779Z,26.70
2022-09-05T15:29:35.607Z,27.00
2022-09-05T15:32:38.103Z,27.30
2022-09-05T15:35:06.189Z,27.30
2022-09-05T15:37:36.898Z,26.60
2022-09-05T15:40:23.090Z,26.00
2022-09-05T15:43:02.424Z,25.50
2022-09-05T15:45:35.456Z,25.00
2022-09-05T15:48:16.109Z,24.70
2022-09-05T15:51:02.582Z,24.40
2022-09-05T15:53:36.485Z,24.10
2022-09-05T15:56:12.476Z,24.00
2022-09-05T15:58:53.406Z,23.90
2022-09-05T16:01:58.632Z,24.00
2022-09-05T16:10:26.858Z,24.10
2022-09-05T16:10:34.369Z,24.10
2022-09-05T16:10:48.476Z,24.30
2022-09-05T16:13:02.445Z,24.50
2022-09-05T16:22:13.989Z,24.40
2022-09-05T16:23:20.280Z,24.40
2022-09-05T16:23:24.775Z,24.30
2022-09-05T16:24:38.599Z,24.60
2022-09-05T16:27:18.438Z,24.30
2022-09-05T16:29:47.986Z,24.10
2022-09-05T16:32:18.369Z,23.80
2022-09-05T16:34:54.821Z,23.90
2022-09-05T16:37:38.878Z,23.60
2022-09-05T16:40:15.359Z,23.30
2022-09-05T16:42:54.436Z,23.00
2022-09-05T16:45:27.267Z,23.00
2022-09-05T16:48:18.518Z,22.80
2022-09-05T16:51:13.349Z,22.60
2022-09-05T16:54:30.845Z,22.40
2022-09-05T16:56:58.683Z,22.20
2022-09-05T16:59:29.813Z,22.00
2022-09-05T17:02:14.786Z,21.80
2022-09-05T17:05:06.336Z,21.70
2022-09-05T17:07:50.740Z,21.60
2022-09-05T17:10:25.612Z,21.50
2022-09-05T17:12:56.181Z,21.40
2022-09-05T17:15:39.267Z,21.20
2022-09-05T17:18:25.267Z,21.10
2022-09-05T17:20:59.357Z,21.00
2022-09-05T17:27:42.824Z,20.80
2022-09-05T17:29:36.535Z,20.70
2022-09-05T17:32:38.911Z,20.40
2022-09-05T17:35:30.162Z,20.30
2022-09-05T17:38:17.422Z,20.20
2022-09-05T17:41:01.731Z,20.10
2022-09-05T17:43:38.589Z,20.00
2022-09-05T17:46:26.080Z,19.80
2022-09-05T17:49:14.758Z,19.70
2022-09-05T17:51:50.863Z,19.60
2022-09-05T17:54:29.780Z,19.60
2022-09-05T17:57:16.699Z,19.50
2022-09-05T17:59:43.565Z,19.40
2022-09-05T18:02:31.130Z,19.20
2022-09-05T18:04:58.435Z,19.20
2022-09-05T18:07:25.528Z,19.10
2022-09-05T18:15:38.352Z,18.90
2022-09-05T18:18:18.446Z,18.80
2022-09-05T18:21:14.658Z,18.70
2022-09-05T18:23:54.272Z,18.70
2022-09-05T18:26:25.338Z,18.80
2022-09-05T18:29:05.819Z,18.80
2022-09-05T18:31:41.204Z,18.70
2022-09-05T18:34:21.254Z,18.80
2022-09-05T18:36:56.063Z,18.70
2022-09-05T18:39:26.064Z,18.70
2022-09-05T18:42:14.790Z,18.60
2022-09-05T18:44:59.504Z,18.60
2022-09-05T18:47:33.013Z,18.60
2022-09-05T18:50:26.116Z,18.50
2022-09-05T18:53:08.836Z,18.50
2022-09-05T18:56:11.024Z,18.40
2022-09-05T18:58:52.063Z,18.30
2022-09-05T19:01:52.851Z,18.20
2022-09-05T19:04:46.349Z,18.10
2022-09-05T19:07:22.381Z,18.00
2022-09-05T19:10:34.301Z,17.90
2022-09-05T19:13:17.247Z,18.00
2022-09-05T19:16:21.070Z,17.90
2022-09-05T19:19:24.413Z,18.00
2022-09-05T19:22:31.983Z,18.10
2022-09-05T19:24:44.859Z,18.00
2022-09-05T19:29:15.619Z,18.00
2022-09-05T19:36:57.981Z,17.90
2022-09-05T19:37:02.460Z,17.90
2022-09-05T19:37:06.389Z,17.90
2022-09-05T19:38:34.185Z,17.80
2022-09-05T19:47:26.477Z,17.70
2022-09-05T19:47:33.998Z,17.70
2022-09-05T19:47:35.920Z,17.70
2022-09-05T19:50:05.626Z,17.60
2022-09-05T19:52:33.690Z,17.50
2022-09-05T19:55:23.555Z,17.50
2022-09-05T19:58:18.537Z,17.50
2022-09-05T20:00:45.956Z,17.50
2022-09-05T20:03:28.073Z,17.50
2022-09-05T20:05:59.070Z,17.40
2022-09-05T20:08:35.484Z,17.40
2022-09-05T20:11:07.531Z,17.40
2022-09-05T20:13:34.403Z,17.30
2022-09-05T20:16:01.983Z,17.20
2022-09-05T20:18:44.997Z,17.20
2022-09-05T20:21:22.150Z,17.20
2022-09-05T20:23:54.026Z,17.20
2022-09-05T20:26:28.149Z,17.20
2022-09-05T20:29:04.980Z,17.20
2022-09-05T20:31:36.775Z,17.20
2022-09-05T20:34:22.617Z,17.10
2022-09-05T20:43:10.656Z,17.10
2022-09-05T20:43:21.188Z,17.10
2022-09-05T20:43:24.179Z,17.00
2022-09-05T20:46:24.264Z,17.00
2022-09-05T20:54:16.036Z,17.00
2022-09-05T20:54:24.888Z,17.10
2022-09-05T20:54:39.393Z,16.90
2022-09-05T20:57:17.528Z,16.90
2022-09-05T20:59:47.146Z,16.90
2022-09-05T21:02:27.418Z,16.80
2022-09-05T21:05:06.864Z,16.80
2022-09-05T21:08:01.139Z,16.80
2022-09-05T21:10:55.963Z,16.90
2022-09-05T21:13:27.318Z,16.90
2022-09-05T21:15:55.758Z,16.90
2022-09-05T21:18:33.018Z,16.90
2022-09-05T21:21:08.952Z,16.90
2022-09-05T21:24:16.324Z,16.80
2022-09-05T21:26:49.777Z,16.90
2022-09-05T21:29:32.222Z,16.80
2022-09-05T21:32:10.587Z,16.80
2022-09-05T21:34:48.962Z,16.70
2022-09-05T21:37:17.125Z,16.70
2022-09-05T21:39:59.935Z,16.70
2022-09-05T21:47:01.500Z,16.70
2022-09-05T21:47:48.364Z,16.80
2022-09-05T21:48:15.085Z,16.70
2022-09-05T21:50:52.097Z,16.60
2022-09-05T21:59:16.681Z,16.60
2022-09-05T21:59:21.371Z,16.60
2022-09-05T21:59:46.657Z,16.50
2022-09-05T22:02:16.877Z,16.50
2022-09-05T22:04:44.089Z,16.40
2022-09-05T22:07:31.932Z,16.40
2022-09-05T22:09:59.618Z,16.30
2022-09-05T22:12:31.314Z,16.20
2022-09-05T22:15:26.741Z,16.20
2022-09-05T22:17:53.630Z,16.20
2022-09-05T22:20:23.342Z,16.10
2022-09-05T22:22:56.824Z,16.10
2022-09-05T22:25:32.076Z,16.10
2022-09-05T22:28:12.810Z,16.10
2022-09-05T22:30:42.379Z,16.10
2022-09-05T22:33:14.172Z,16.10
2022-09-05T22:35:41.672Z,16.00
2022-09-05T22:38:16.402Z,16.00
2022-09-05T22:40:46.408Z,16.00
2022-09-05T22:43:15.007Z,15.90
2022-09-05T22:45:42.050Z,15.90
2022-09-05T22:48:11.049Z,15.90
2022-09-05T22:50:38.253Z,15.80
2022-09-05T22:53:09.712Z,15.80
2022-09-05T22:55:38.700Z,15.70
2022-09-05T22:58:09.818Z,15.70
2022-09-05T23:00:37.195Z,15.60
2022-09-05T23:03:06.188Z,15.70
2022-09-05T23:05:33.629Z,15.60
2022-09-05T23:08:04.098Z,15.60
2022-09-05T23:10:34.315Z,15.60
2022-09-05T23:13:04.648Z,15.60
2022-09-05T23:15:31.452Z,15.60
2022-09-05T23:17:59.663Z,15.60
2022-09-05T23:20:29.317Z,15.70
2022-09-05T23:22:56.810Z,15.60
2022-09-05T23:25:27.116Z,15.60
2022-09-05T23:27:56.122Z,15.60
2022-09-05T23:30:22.970Z,15.60
2022-09-05T23:32:51.357Z,15.50
2022-09-05T23:35:21.354Z,15.40
2022-09-05T23:37:50.771Z,15.40
2022-09-05T23:40:23.499Z,15.40
2022-09-05T23:42:57.670Z,15.40
2022-09-05T23:45:25.910Z,15.40
2022-09-05T23:47:56.483Z,15.30
2022-09-05T23:50:23.641Z,15.40
2022-09-05T23:52:50.769Z,15.20
2022-09-05T23:55:19.656Z,15.30
2022-09-05T23:57:49.091Z,15.20
